sensor_id;sensor_type;location;lat;lon;timestamp;P1;durP1;ratioP1;P2;durP2;ratioP2
1400;SDS011;46518;48.842;8.926;2023-04-15T00:01:59;4.80;;;3.50;;
1400;SDS011;46518;48.842;8.926;2023-04-15T00:04:27;5.40;;;4.10;;
1400;SDS011;46518;48.842;8.926;2023-04-15T00:06:57;7.75;;;4.05;;
1400;SDS011;46518;48.842;8.926;2023-04-15T00:09:26;7.32;;;4.05;;
1400;SDS011;46518;48.842;8.926;2023-04-15T00:11:54;7.20;;;3.60;;
1400;SDS011;46518;48.842;8.926;2023-04-15T00:14:23;5.82;;;4.05;;
1400;SDS011;46518;48.842;8.926;2023-04-15T00:16:52;6.43;;;3.95;;
1400;SDS011;46518;48.842;8.926;2023-04-15T00:19:23;8.18;;;3.70;;
1400;SDS011;46518;48.842;8.926;2023-04-15T00:21:52;5.53;;;3.33;;
1400;SDS011;46518;48.842;8.926;2023-04-15T00:24:20;4.30;;;3.67;;
1400;SDS011;46518;48.842;8.926;2023-04-15T00:26:48;5.30;;;4.35;;
1400;SDS011;46518;48.842;8.926;2023-04-15T00:29:17;5.07;;;3.83;;
1400;SDS011;46518;48.842;8.926;2023-04-15T00:31:45;6.20;;;3.83;;
1400;SDS011;46518;48.842;8.926;2023-04-15T00:34:14;4.97;;;4.53;;
1400;SDS011;46518;48.842;8.926;2023-04-15T00:36:43;6.60;;;4.68;;
1400;SDS011;46518;48.842;8.926;2023-04-15T00:39:12;4.97;;;4.10;;
1400;SDS011;46518;48.842;8.926;2023-04-15T00:41:41;8.60;;;5.03;;
1400;SDS011;46518;48.842;8.926;2023-04-15T00:44:11;4.72;;;3.75;;
1400;SDS011;46518;48.842;8.926;2023-04-15T00:46:39;7.60;;;5.25;;
1400;SDS011;46518;48.842;8.926;2023-04-15T00:49:09;8.43;;;4.00;;
1400;SDS011;46518;48.842;8.926;2023-04-15T00:51:38;6.15;;;4.28;;
1400;SDS011;46518;48.842;8.926;2023-04-15T00:54:09;5.25;;;4.57;;
1400;SDS011;46518;48.842;8.926;2023-04-15T00:56:39;5.35;;;3.67;;
1400;SDS011;46518;48.842;8.926;2023-04-15T00:59:08;5.80;;;4.05;;
1400;SDS011;46518;48.842;8.926;2023-04-15T01:01:36;5.15;;;3.55;;
1400;SDS011;46518;48.842;8.926;2023-04-15T01:04:05;5.63;;;4.35;;
1400;SDS011;46518;48.842;8.926;2023-04-15T01:06:34;8.27;;;3.85;;
1400;SDS011;46518;48.842;8.926;2023-04-15T01:09:02;3.33;;;3.00;;
1400;SDS011;46518;48.842;8.926;2023-04-15T01:11:32;3.58;;;2.78;;
1400;SDS011;46518;48.842;8.926;2023-04-15T01:14:01;6.95;;;4.07;;
1400;SDS011;46518;48.842;8.926;2023-04-15T01:16:30;5.35;;;3.55;;
1400;SDS011;46518;48.842;8.926;2023-04-15T01:18:58;6.00;;;3.55;;
1400;SDS011;46518;48.842;8.926;2023-04-15T01:21:27;6.85;;;3.83;;
1400;SDS011;46518;48.842;8.926;2023-04-15T01:23:55;4.22;;;3.83;;
1400;SDS011;46518;48.842;8.926;2023-04-15T01:26:27;5.65;;;3.20;;
1400;SDS011;46518;48.842;8.926;2023-04-15T01:28:56;3.35;;;2.97;;
1400;SDS011;46518;48.842;8.926;2023-04-15T01:31:25;4.55;;;3.40;;
1400;SDS011;46518;48.842;8.926;2023-04-15T01:33:53;4.75;;;4.10;;
1400;SDS011;46518;48.842;8.926;2023-04-15T01:36:40;4.38;;;3.47;;
1400;SDS011;46518;48.842;8.926;2023-04-15T01:39:08;4.30;;;3.35;;
1400;SDS011;46518;48.842;8.926;2023-04-15T01:41:38;13.65;;;4.10;;
1400;SDS011;46518;48.842;8.926;2023-04-15T01:44:09;6.00;;;4.05;;
1400;SDS011;46518;48.842;8.926;2023-04-15T01:46:39;6.80;;;3.78;;
1400;SDS011;46518;48.842;8.926;2023-04-15T01:49:09;5.45;;;4.20;;
1400;SDS011;46518;48.842;8.926;2023-04-15T01:51:39;5.05;;;3.80;;
1400;SDS011;46518;48.842;8.926;2023-04-15T01:54:09;6.50;;;3.95;;
1400;SDS011;46518;48.842;8.926;2023-04-15T01:56:39;3.25;;;2.95;;
1400;SDS011;46518;48.842;8.926;2023-04-15T01:59:09;6.82;;;5.60;;
1400;SDS011;46518;48.842;8.926;2023-04-15T02:01:39;4.97;;;3.78;;
1400;SDS011;46518;48.842;8.926;2023-04-15T02:04:09;5.85;;;3.97;;
1400;SDS011;46518;48.842;8.926;2023-04-15T02:06:43;6.13;;;4.30;;
1400;SDS011;46518;48.842;8.926;2023-04-15T02:09:14;8.77;;;4.68;;
1400;SDS011;46518;48.842;8.926;2023-04-15T02:11:47;4.38;;;3.70;;
1400;SDS011;46518;48.842;8.926;2023-04-15T02:14:16;8.75;;;4.50;;
1400;SDS011;46518;48.842;8.926;2023-04-15T02:16:47;3.97;;;3.58;;
1400;SDS011;46518;48.842;8.926;2023-04-15T02:19:16;4.75;;;3.80;;
1400;SDS011;46518;48.842;8.926;2023-04-15T02:21:46;8.20;;;4.47;;
1400;SDS011;46518;48.842;8.926;2023-04-15T02:24:17;9.57;;;4.57;;
1400;SDS011;46518;48.842;8.926;2023-04-15T02:26:49;4.18;;;3.72;;
1400;SDS011;46518;48.842;8.926;2023-04-15T02:29:18;4.93;;;4.05;;
1400;SDS011;46518;48.842;8.926;2023-04-15T02:31:49;5.30;;;3.65;;
1400;SDS011;46518;48.842;8.926;2023-04-15T02:34:20;5.95;;;3.58;;
1400;SDS011;46518;48.842;8.926;2023-04-15T02:36:49;4.40;;;3.97;;
1400;SDS011;46518;48.842;8.926;2023-04-15T02:39:23;4.50;;;4.07;;
1400;SDS011;46518;48.842;8.926;2023-04-15T02:41:53;4.00;;;3.08;;
1400;SDS011;46518;48.842;8.926;2023-04-15T02:44:26;3.95;;;3.40;;
1400;SDS011;46518;48.842;8.926;2023-04-15T02:46:59;3.65;;;2.95;;
1400;SDS011;46518;48.842;8.926;2023-04-15T02:49:28;6.95;;;3.80;;
1400;SDS011;46518;48.842;8.926;2023-04-15T02:51:58;4.50;;;3.05;;
1400;SDS011;46518;48.842;8.926;2023-04-15T02:54:27;5.95;;;2.70;;
1400;SDS011;46518;48.842;8.926;2023-04-15T02:56:58;5.65;;;3.70;;
1400;SDS011;46518;48.842;8.926;2023-04-15T02:59:28;8.02;;;3.75;;
1400;SDS011;46518;48.842;8.926;2023-04-15T03:01:58;5.10;;;3.22;;
1400;SDS011;46518;48.842;8.926;2023-04-15T03:04:28;6.55;;;2.90;;
1400;SDS011;46518;48.842;8.926;2023-04-15T03:06:58;6.15;;;4.13;;
1400;SDS011;46518;48.842;8.926;2023-04-15T03:09:27;3.78;;;3.10;;
1400;SDS011;46518;48.842;8.926;2023-04-15T03:12:00;5.20;;;4.25;;
1400;SDS011;46518;48.842;8.926;2023-04-15T03:14:30;4.45;;;3.70;;
1400;SDS011;46518;48.842;8.926;2023-04-15T03:16:59;3.17;;;2.75;;
1400;SDS011;46518;48.842;8.926;2023-04-15T03:19:29;4.45;;;3.58;;
1400;SDS011;46518;48.842;8.926;2023-04-15T03:21:59;5.15;;;3.40;;
1400;SDS011;46518;48.842;8.926;2023-04-15T03:24:28;5.28;;;3.53;;
1400;SDS011;46518;48.842;8.926;2023-04-15T03:26:59;4.53;;;4.13;;
1400;SDS011;46518;48.842;8.926;2023-04-15T03:29:29;4.80;;;4.18;;
1400;SDS011;46518;48.842;8.926;2023-04-15T03:31:59;6.63;;;3.75;;
1400;SDS011;46518;48.842;8.926;2023-04-15T03:34:33;5.10;;;4.40;;
1400;SDS011;46518;48.842;8.926;2023-04-15T03:37:04;5.45;;;3.50;;
1400;SDS011;46518;48.842;8.926;2023-04-15T03:39:33;5.47;;;3.53;;
1400;SDS011;46518;48.842;8.926;2023-04-15T03:42:05;8.75;;;4.43;;
1400;SDS011;46518;48.842;8.926;2023-04-15T03:44:34;6.00;;;4.18;;
1400;SDS011;46518;48.842;8.926;2023-04-15T03:47:04;7.50;;;4.97;;
1400;SDS011;46518;48.842;8.926;2023-04-15T03:49:33;6.68;;;4.20;;
1400;SDS011;46518;48.842;8.926;2023-04-15T03:52:03;7.05;;;4.30;;
1400;SDS011;46518;48.842;8.926;2023-04-15T03:54:33;6.68;;;4.72;;
1400;SDS011;46518;48.842;8.926;2023-04-15T03:57:04;5.13;;;4.50;;
1400;SDS011;46518;48.842;8.926;2023-04-15T03:59:34;8.85;;;4.93;;
1400;SDS011;46518;48.842;8.926;2023-04-15T04:02:03;5.72;;;4.43;;
1400;SDS011;46518;48.842;8.926;2023-04-15T04:04:33;4.60;;;3.80;;
1400;SDS011;46518;48.842;8.926;2023-04-15T04:07:03;7.45;;;4.38;;
1400;SDS011;46518;48.842;8.926;2023-04-15T04:09:32;9.18;;;4.15;;
1400;SDS011;46518;48.842;8.926;2023-04-15T04:12:02;6.60;;;4.80;;
1400;SDS011;46518;48.842;8.926;2023-04-15T04:14:33;5.18;;;3.60;;
1400;SDS011;46518;48.842;8.926;2023-04-15T04:17:02;3.97;;;3.58;;
1400;SDS011;46518;48.842;8.926;2023-04-15T04:19:32;7.47;;;4.05;;
1400;SDS011;46518;48.842;8.926;2023-04-15T04:22:02;5.93;;;3.90;;
1400;SDS011;46518;48.842;8.926;2023-04-15T04:24:31;4.53;;;3.78;;
1400;SDS011;46518;48.842;8.926;2023-04-15T04:27:01;3.60;;;3.22;;
1400;SDS011;46518;48.842;8.926;2023-04-15T04:29:31;5.45;;;3.60;;
1400;SDS011;46518;48.842;8.926;2023-04-15T04:32:02;6.55;;;3.70;;
1400;SDS011;46518;48.842;8.926;2023-04-15T04:34:31;4.80;;;3.63;;
1400;SDS011;46518;48.842;8.926;2023-04-15T04:37:01;7.63;;;3.67;;
1400;SDS011;46518;48.842;8.926;2023-04-15T04:39:31;10.73;;;3.30;;
1400;SDS011;46518;48.842;8.926;2023-04-15T04:42:01;4.72;;;3.30;;
1400;SDS011;46518;48.842;8.926;2023-04-15T04:44:30;7.30;;;3.75;;
1400;SDS011;46518;48.842;8.926;2023-04-15T04:47:01;6.57;;;2.90;;
1400;SDS011;46518;48.842;8.926;2023-04-15T04:49:31;6.97;;;3.03;;
1400;SDS011;46518;48.842;8.926;2023-04-15T04:52:01;5.72;;;2.97;;
1400;SDS011;46518;48.842;8.926;2023-04-15T04:54:30;4.50;;;2.95;;
1400;SDS011;46518;48.842;8.926;2023-04-15T04:57:00;5.28;;;3.60;;
1400;SDS011;46518;48.842;8.926;2023-04-15T04:59:30;4.95;;;3.25;;
1400;SDS011;46518;48.842;8.926;2023-04-15T05:02:01;5.63;;;4.00;;
1400;SDS011;46518;48.842;8.926;2023-04-15T05:04:31;4.80;;;3.17;;
1400;SDS011;46518;48.842;8.926;2023-04-15T05:07:01;11.48;;;3.53;;
1400;SDS011;46518;48.842;8.926;2023-04-15T05:09:31;5.30;;;3.60;;
1400;SDS011;46518;48.842;8.926;2023-04-15T05:12:03;6.50;;;3.35;;
1400;SDS011;46518;48.842;8.926;2023-04-15T05:14:33;3.15;;;2.65;;
1400;SDS011;46518;48.842;8.926;2023-04-15T05:17:04;6.20;;;3.05;;
1400;SDS011;46518;48.842;8.926;2023-04-15T05:19:33;7.00;;;3.00;;
1400;SDS011;46518;48.842;8.926;2023-04-15T05:22:03;4.70;;;3.30;;
1400;SDS011;46518;48.842;8.926;2023-04-15T05:24:33;5.78;;;4.38;;
1400;SDS011;46518;48.842;8.926;2023-04-15T05:27:03;6.15;;;3.00;;
1400;SDS011;46518;48.842;8.926;2023-04-15T05:29:32;4.53;;;3.03;;
1400;SDS011;46518;48.842;8.926;2023-04-15T05:32:04;5.97;;;2.80;;
1400;SDS011;46518;48.842;8.926;2023-04-15T05:34:34;4.63;;;2.90;;
1400;SDS011;46518;48.842;8.926;2023-04-15T05:37:04;3.17;;;2.85;;
1400;SDS011;46518;48.842;8.926;2023-04-15T05:39:33;5.80;;;2.97;;
1400;SDS011;46518;48.842;8.926;2023-04-15T05:42:03;6.53;;;3.35;;
1400;SDS011;46518;48.842;8.926;2023-04-15T05:44:34;4.50;;;3.22;;
1400;SDS011;46518;48.842;8.926;2023-04-15T05:47:05;5.15;;;3.00;;
1400;SDS011;46518;48.842;8.926;2023-04-15T05:49:36;5.93;;;3.08;;
1400;SDS011;46518;48.842;8.926;2023-04-15T05:52:06;6.25;;;2.75;;
1400;SDS011;46518;48.842;8.926;2023-04-15T05:54:36;3.50;;;3.20;;
1400;SDS011;46518;48.842;8.926;2023-04-15T05:57:05;6.32;;;3.58;;
1400;SDS011;46518;48.842;8.926;2023-04-15T05:59:35;3.97;;;2.97;;
1400;SDS011;46518;48.842;8.926;2023-04-15T06:02:07;4.85;;;3.20;;
1400;SDS011;46518;48.842;8.926;2023-04-15T06:04:38;3.05;;;2.72;;
1400;SDS011;46518;48.842;8.926;2023-04-15T06:07:08;3.30;;;2.95;;
1400;SDS011;46518;48.842;8.926;2023-04-15T06:09:38;4.13;;;3.53;;
1400;SDS011;46518;48.842;8.926;2023-04-15T06:12:08;4.35;;;3.95;;
1400;SDS011;46518;48.842;8.926;2023-04-15T06:14:39;4.15;;;3.53;;
1400;SDS011;46518;48.842;8.926;2023-04-15T06:17:10;4.15;;;3.35;;
1400;SDS011;46518;48.842;8.926;2023-04-15T06:19:41;7.10;;;3.40;;
1400;SDS011;46518;48.842;8.926;2023-04-15T06:22:11;5.10;;;3.42;;
1400;SDS011;46518;48.842;8.926;2023-04-15T06:24:41;4.68;;;3.25;;
1400;SDS011;46518;48.842;8.926;2023-04-15T06:27:11;8.20;;;3.97;;
1400;SDS011;46518;48.842;8.926;2023-04-15T06:29:40;6.25;;;3.75;;
1400;SDS011;46518;48.842;8.926;2023-04-15T06:32:11;3.58;;;3.20;;
1400;SDS011;46518;48.842;8.926;2023-04-15T06:34:41;3.30;;;2.80;;
1400;SDS011;46518;48.842;8.926;2023-04-15T06:37:11;5.45;;;3.42;;
1400;SDS011;46518;48.842;8.926;2023-04-15T06:39:43;3.75;;;3.30;;
1400;SDS011;46518;48.842;8.926;2023-04-15T06:42:12;4.30;;;3.35;;
1400;SDS011;46518;48.842;8.926;2023-04-15T06:44:42;6.00;;;3.10;;
1400;SDS011;46518;48.842;8.926;2023-04-15T06:47:13;5.43;;;2.92;;
1400;SDS011;46518;48.842;8.926;2023-04-15T06:49:43;3.58;;;3.28;;
1400;SDS011;46518;48.842;8.926;2023-04-15T06:52:12;6.22;;;3.38;;
1400;SDS011;46518;48.842;8.926;2023-04-15T06:54:43;4.43;;;3.72;;
1400;SDS011;46518;48.842;8.926;2023-04-15T06:57:13;2.83;;;2.63;;
1400;SDS011;46518;48.842;8.926;2023-04-15T06:59:43;3.35;;;2.65;;
1400;SDS011;46518;48.842;8.926;2023-04-15T07:02:14;4.65;;;3.25;;
1400;SDS011;46518;48.842;8.926;2023-04-15T07:04:44;5.78;;;2.88;;
1400;SDS011;46518;48.842;8.926;2023-04-15T07:07:13;3.50;;;2.97;;
1400;SDS011;46518;48.842;8.926;2023-04-15T07:09:44;3.47;;;2.90;;
1400;SDS011;46518;48.842;8.926;2023-04-15T07:12:14;4.65;;;2.50;;
1400;SDS011;46518;48.842;8.926;2023-04-15T07:14:43;4.90;;;3.08;;
1400;SDS011;46518;48.842;8.926;2023-04-15T07:17:15;4.10;;;3.05;;
1400;SDS011;46518;48.842;8.926;2023-04-15T07:19:45;4.13;;;3.40;;
1400;SDS011;46518;48.842;8.926;2023-04-15T07:22:14;6.25;;;3.28;;
1400;SDS011;46518;48.842;8.926;2023-04-15T07:24:44;4.32;;;3.30;;
1400;SDS011;46518;48.842;8.926;2023-04-15T07:27:14;3.03;;;2.75;;
1400;SDS011;46518;48.842;8.926;2023-04-15T07:29:44;3.10;;;2.78;;
1400;SDS011;46518;48.842;8.926;2023-04-15T07:32:15;3.83;;;3.40;;
1400;SDS011;46518;48.842;8.926;2023-04-15T07:34:45;5.80;;;3.70;;
1400;SDS011;46518;48.842;8.926;2023-04-15T07:37:15;4.63;;;3.42;;
1400;SDS011;46518;48.842;8.926;2023-04-15T07:39:45;3.15;;;2.40;;
1400;SDS011;46518;48.842;8.926;2023-04-15T07:42:16;5.25;;;2.65;;
1400;SDS011;46518;48.842;8.926;2023-04-15T07:44:45;3.90;;;2.90;;
1400;SDS011;46518;48.842;8.926;2023-04-15T07:47:16;2.97;;;2.53;;
1400;SDS011;46518;48.842;8.926;2023-04-15T07:49:46;3.38;;;2.47;;
1400;SDS011;46518;48.842;8.926;2023-04-15T07:52:16;2.40;;;2.20;;
1400;SDS011;46518;48.842;8.926;2023-04-15T07:54:45;4.05;;;2.72;;
1400;SDS011;46518;48.842;8.926;2023-04-15T07:57:15;4.30;;;2.20;;
1400;SDS011;46518;48.842;8.926;2023-04-15T07:59:45;2.78;;;2.58;;
1400;SDS011;46518;48.842;8.926;2023-04-15T08:02:16;4.30;;;2.08;;
1400;SDS011;46518;48.842;8.926;2023-04-15T08:04:46;3.17;;;2.45;;
1400;SDS011;46518;48.842;8.926;2023-04-15T08:07:16;3.03;;;2.70;;
1400;SDS011;46518;48.842;8.926;2023-04-15T08:09:46;3.67;;;2.55;;
1400;SDS011;46518;48.842;8.926;2023-04-15T08:12:15;5.68;;;2.35;;
1400;SDS011;46518;48.842;8.926;2023-04-15T08:14:45;3.10;;;2.25;;
1400;SDS011;46518;48.842;8.926;2023-04-15T08:17:16;3.67;;;1.90;;
1400;SDS011;46518;48.842;8.926;2023-04-15T08:19:46;1.80;;;1.63;;
1400;SDS011;46518;48.842;8.926;2023-04-15T08:22:17;3.70;;;2.33;;
1400;SDS011;46518;48.842;8.926;2023-04-15T08:24:49;2.42;;;1.90;;
1400;SDS011;46518;48.842;8.926;2023-04-15T08:27:18;6.22;;;2.20;;
1400;SDS011;46518;48.842;8.926;2023-04-15T08:29:48;3.88;;;2.50;;
1400;SDS011;46518;48.842;8.926;2023-04-15T08:32:19;2.60;;;2.40;;
1400;SDS011;46518;48.842;8.926;2023-04-15T08:34:49;3.70;;;2.67;;
1400;SDS011;46518;48.842;8.926;2023-04-15T08:37:19;2.47;;;2.05;;
1400;SDS011;46518;48.842;8.926;2023-04-15T08:39:49;2.47;;;2.25;;
1400;SDS011;46518;48.842;8.926;2023-04-15T08:42:22;2.80;;;2.28;;
1400;SDS011;46518;48.842;8.926;2023-04-15T08:44:55;6.78;;;2.90;;
1400;SDS011;46518;48.842;8.926;2023-04-15T08:47:29;3.05;;;2.20;;
1400;SDS011;46518;48.842;8.926;2023-04-15T08:50:00;4.25;;;2.22;;
1400;SDS011;46518;48.842;8.926;2023-04-15T08:52:31;3.15;;;2.30;;
1400;SDS011;46518;48.842;8.926;2023-04-15T08:55:01;3.35;;;2.00;;
1400;SDS011;46518;48.842;8.926;2023-04-15T08:57:31;2.50;;;2.30;;
1400;SDS011;46518;48.842;8.926;2023-04-15T09:00:02;4.45;;;2.40;;
1400;SDS011;46518;48.842;8.926;2023-04-15T09:02:34;3.13;;;2.58;;
1400;SDS011;46518;48.842;8.926;2023-04-15T09:05:05;4.85;;;2.95;;
1400;SDS011;46518;48.842;8.926;2023-04-15T09:07:35;3.88;;;2.90;;
1400;SDS011;46518;48.842;8.926;2023-04-15T09:10:05;2.72;;;2.45;;
1400;SDS011;46518;48.842;8.926;2023-04-15T09:12:36;5.10;;;2.65;;
1400;SDS011;46518;48.842;8.926;2023-04-15T09:15:06;3.42;;;3.13;;
1400;SDS011;46518;48.842;8.926;2023-04-15T09:17:42;2.92;;;2.67;;
1400;SDS011;46518;48.842;8.926;2023-04-15T09:20:13;3.25;;;2.92;;
1400;SDS011;46518;48.842;8.926;2023-04-15T09:22:46;3.85;;;2.75;;
1400;SDS011;46518;48.842;8.926;2023-04-15T09:25:27;3.13;;;2.83;;
1400;SDS011;46518;48.842;8.926;2023-04-15T09:28:00;5.95;;;3.17;;
1400;SDS011;46518;48.842;8.926;2023-04-15T09:30:30;5.40;;;3.20;;
1400;SDS011;46518;48.842;8.926;2023-04-15T09:33:01;2.65;;;2.45;;
1400;SDS011;46518;48.842;8.926;2023-04-15T09:35:35;2.17;;;2.05;;
1400;SDS011;46518;48.842;8.926;2023-04-15T09:38:05;2.20;;;2.00;;
1400;SDS011;46518;48.842;8.926;2023-04-15T09:40:37;3.58;;;2.80;;
1400;SDS011;46518;48.842;8.926;2023-04-15T09:43:08;3.35;;;2.60;;
1400;SDS011;46518;48.842;8.926;2023-04-15T09:45:44;5.20;;;3.30;;
1400;SDS011;46518;48.842;8.926;2023-04-15T09:48:18;5.65;;;2.67;;
1400;SDS011;46518;48.842;8.926;2023-04-15T09:50:49;3.88;;;2.65;;
1400;SDS011;46518;48.842;8.926;2023-04-15T09:53:20;2.80;;;2.22;;
1400;SDS011;46518;48.842;8.926;2023-04-15T09:55:51;3.10;;;2.90;;
1400;SDS011;46518;48.842;8.926;2023-04-15T09:58:22;3.60;;;3.30;;
1400;SDS011;46518;48.842;8.926;2023-04-15T10:00:54;4.50;;;2.60;;
1400;SDS011;46518;48.842;8.926;2023-04-15T10:03:26;4.00;;;3.60;;
1400;SDS011;46518;48.842;8.926;2023-04-15T10:05:58;4.28;;;3.83;;
1400;SDS011;46518;48.842;8.926;2023-04-15T10:08:31;4.82;;;3.42;;
1400;SDS011;46518;48.842;8.926;2023-04-15T10:11:01;4.10;;;3.70;;
1400;SDS011;46518;48.842;8.926;2023-04-15T10:13:32;3.70;;;3.40;;
1400;SDS011;46518;48.842;8.926;2023-04-15T10:16:05;3.83;;;2.65;;
1400;SDS011;46518;48.842;8.926;2023-04-15T10:18:37;2.90;;;2.70;;
1400;SDS011;46518;48.842;8.926;2023-04-15T10:21:09;2.30;;;2.20;;
1400;SDS011;46518;48.842;8.926;2023-04-15T10:23:40;3.45;;;2.90;;
1400;SDS011;46518;48.842;8.926;2023-04-15T10:26:11;2.85;;;2.40;;
1400;SDS011;46518;48.842;8.926;2023-04-15T10:28:42;2.72;;;2.47;;
1400;SDS011;46518;48.842;8.926;2023-04-15T10:31:11;6.35;;;2.60;;
1400;SDS011;46518;48.842;8.926;2023-04-15T10:33:44;2.55;;;2.33;;
1400;SDS011;46518;48.842;8.926;2023-04-15T10:36:15;2.92;;;2.60;;
1400;SDS011;46518;48.842;8.926;2023-04-15T10:38:46;3.47;;;2.63;;
1400;SDS011;46518;48.842;8.926;2023-04-15T10:41:17;2.75;;;2.38;;
1400;SDS011;46518;48.842;8.926;2023-04-15T10:43:49;3.83;;;3.30;;
1400;SDS011;46518;48.842;8.926;2023-04-15T10:46:21;3.72;;;3.40;;
1400;SDS011;46518;48.842;8.926;2023-04-15T10:48:54;5.30;;;3.00;;
1400;SDS011;46518;48.842;8.926;2023-04-15T10:51:28;11.15;;;3.63;;
1400;SDS011;46518;48.842;8.926;2023-04-15T10:54:00;6.30;;;3.17;;
1400;SDS011;46518;48.842;8.926;2023-04-15T10:56:30;3.80;;;2.75;;
1400;SDS011;46518;48.842;8.926;2023-04-15T10:59:00;3.10;;;2.80;;
1400;SDS011;46518;48.842;8.926;2023-04-15T11:01:50;4.75;;;3.78;;
1400;SDS011;46518;48.842;8.926;2023-04-15T11:07:32;4.38;;;3.55;;
1400;SDS011;46518;48.842;8.926;2023-04-15T11:10:03;7.88;;;3.85;;
1400;SDS011;46518;48.842;8.926;2023-04-15T11:13:24;4.38;;;3.90;;
1400;SDS011;46518;48.842;8.926;2023-04-15T11:16:00;4.88;;;2.97;;
1400;SDS011;46518;48.842;8.926;2023-04-15T11:18:32;6.82;;;2.22;;
1400;SDS011;46518;48.842;8.926;2023-04-15T11:21:04;4.03;;;3.35;;
1400;SDS011;46518;48.842;8.926;2023-04-15T11:23:36;4.10;;;3.70;;
1400;SDS011;46518;48.842;8.926;2023-04-15T11:26:07;8.15;;;4.22;;
1400;SDS011;46518;48.842;8.926;2023-04-15T11:28:39;5.90;;;3.55;;
1400;SDS011;46518;48.842;8.926;2023-04-15T11:31:10;3.95;;;3.55;;
1400;SDS011;46518;48.842;8.926;2023-04-15T11:33:44;7.13;;;4.88;;
1400;SDS011;46518;48.842;8.926;2023-04-15T11:36:16;7.45;;;5.00;;
1400;SDS011;46518;48.842;8.926;2023-04-15T11:38:46;5.35;;;4.13;;
1400;SDS011;46518;48.842;8.926;2023-04-15T11:41:18;5.00;;;4.43;;
1400;SDS011;46518;48.842;8.926;2023-04-15T11:43:49;9.95;;;5.15;;
1400;SDS011;46518;48.842;8.926;2023-04-15T11:46:19;6.90;;;4.63;;
1400;SDS011;46518;48.842;8.926;2023-04-15T11:48:49;5.80;;;5.13;;
1400;SDS011;46518;48.842;8.926;2023-04-15T11:51:23;11.50;;;4.70;;
1400;SDS011;46518;48.842;8.926;2023-04-15T11:53:52;6.53;;;5.03;;
1400;SDS011;46518;48.842;8.926;2023-04-15T11:56:22;5.70;;;5.00;;
1400;SDS011;46518;48.842;8.926;2023-04-15T11:58:53;7.15;;;5.00;;
1400;SDS011;46518;48.842;8.926;2023-04-15T12:01:29;10.65;;;5.82;;
1400;SDS011;46518;48.842;8.926;2023-04-15T12:03:59;6.65;;;5.00;;
1400;SDS011;46518;48.842;8.926;2023-04-15T12:06:34;8.15;;;5.13;;
1400;SDS011;46518;48.842;8.926;2023-04-15T12:09:08;6.88;;;5.20;;
1400;SDS011;46518;48.842;8.926;2023-04-15T12:11:42;9.43;;;5.65;;
1400;SDS011;46518;48.842;8.926;2023-04-15T12:14:14;4.88;;;4.47;;
1400;SDS011;46518;48.842;8.926;2023-04-15T12:16:47;5.40;;;4.90;;
1400;SDS011;46518;48.842;8.926;2023-04-15T12:19:21;5.40;;;4.90;;
1400;SDS011;46518;48.842;8.926;2023-04-15T12:21:56;5.82;;;5.32;;
1400;SDS011;46518;48.842;8.926;2023-04-15T12:24:27;5.55;;;4.57;;
1400;SDS011;46518;48.842;8.926;2023-04-15T12:27:00;10.27;;;4.78;;
1400;SDS011;46518;48.842;8.926;2023-04-15T12:29:32;6.00;;;5.38;;
1400;SDS011;46518;48.842;8.926;2023-04-15T12:32:05;5.28;;;4.72;;
1400;SDS011;46518;48.842;8.926;2023-04-15T12:34:36;6.55;;;5.53;;
1400;SDS011;46518;48.842;8.926;2023-04-15T12:37:08;5.93;;;4.68;;
1400;SDS011;46518;48.842;8.926;2023-04-15T12:39:40;5.57;;;5.00;;
1400;SDS011;46518;48.842;8.926;2023-04-15T12:42:10;6.30;;;4.70;;
1400;SDS011;46518;48.842;8.926;2023-04-15T12:44:39;5.35;;;4.82;;
1400;SDS011;46518;48.842;8.926;2023-04-15T12:47:09;6.32;;;4.75;;
1400;SDS011;46518;48.842;8.926;2023-04-15T12:49:38;4.95;;;4.20;;
1400;SDS011;46518;48.842;8.926;2023-04-15T12:52:08;6.75;;;4.18;;
1400;SDS011;46518;48.842;8.926;2023-04-15T12:54:38;4.57;;;4.18;;
1400;SDS011;46518;48.842;8.926;2023-04-15T12:57:07;6.88;;;4.00;;
1400;SDS011;46518;48.842;8.926;2023-04-15T12:59:35;4.50;;;4.10;;
1400;SDS011;46518;48.842;8.926;2023-04-15T13:02:04;4.15;;;3.75;;
1400;SDS011;46518;48.842;8.926;2023-04-15T13:04:33;3.85;;;3.55;;
1400;SDS011;46518;48.842;8.926;2023-04-15T13:07:02;5.00;;;4.50;;
1400;SDS011;46518;48.842;8.926;2023-04-15T13:09:32;4.57;;;3.40;;
1400;SDS011;46518;48.842;8.926;2023-04-15T13:12:00;4.50;;;4.05;;
1400;SDS011;46518;48.842;8.926;2023-04-15T13:14:31;3.65;;;3.38;;
1400;SDS011;46518;48.842;8.926;2023-04-15T13:16:59;5.00;;;3.75;;
1400;SDS011;46518;48.842;8.926;2023-04-15T13:19:28;7.15;;;3.45;;
1400;SDS011;46518;48.842;8.926;2023-04-15T13:21:56;6.75;;;3.80;;
1400;SDS011;46518;48.842;8.926;2023-04-15T13:24:24;3.15;;;2.88;;
1400;SDS011;46518;48.842;8.926;2023-04-15T13:26:54;2.55;;;2.35;;
1400;SDS011;46518;48.842;8.926;2023-04-15T13:29:24;3.20;;;2.75;;
1400;SDS011;46518;48.842;8.926;2023-04-15T13:31:53;7.35;;;3.58;;
1400;SDS011;46518;48.842;8.926;2023-04-15T13:34:22;3.00;;;2.70;;
1400;SDS011;46518;48.842;8.926;2023-04-15T13:36:50;3.58;;;2.85;;
1400;SDS011;46518;48.842;8.926;2023-04-15T13:39:18;3.22;;;2.47;;
1400;SDS011;46518;48.842;8.926;2023-04-15T13:41:46;2.75;;;2.40;;
1400;SDS011;46518;48.842;8.926;2023-04-15T13:44:16;4.53;;;2.30;;
1400;SDS011;46518;48.842;8.926;2023-04-15T13:46:47;3.25;;;2.67;;
1400;SDS011;46518;48.842;8.926;2023-04-15T13:49:15;1.67;;;1.58;;
1400;SDS011;46518;48.842;8.926;2023-04-15T13:51:43;3.22;;;2.65;;
1400;SDS011;46518;48.842;8.926;2023-04-15T13:54:11;3.28;;;2.90;;
1400;SDS011;46518;48.842;8.926;2023-04-15T13:56:39;3.08;;;2.40;;
1400;SDS011;46518;48.842;8.926;2023-04-15T13:59:08;3.45;;;2.67;;
1400;SDS011;46518;48.842;8.926;2023-04-15T14:01:38;3.55;;;2.40;;
1400;SDS011;46518;48.842;8.926;2023-04-15T14:04:07;3.70;;;2.75;;
1400;SDS011;46518;48.842;8.926;2023-04-15T14:06:36;3.38;;;2.55;;
1400;SDS011;46518;48.842;8.926;2023-04-15T14:09:04;2.47;;;2.25;;
1400;SDS011;46518;48.842;8.926;2023-04-15T14:11:33;3.03;;;2.17;;
1400;SDS011;46518;48.842;8.926;2023-04-15T14:14:02;3.15;;;2.30;;
1400;SDS011;46518;48.842;8.926;2023-04-15T14:16:31;3.30;;;3.00;;
1400;SDS011;46518;48.842;8.926;2023-04-15T14:19:01;5.72;;;3.47;;
1400;SDS011;46518;48.842;8.926;2023-04-15T14:21:29;3.30;;;2.67;;
1400;SDS011;46518;48.842;8.926;2023-04-15T14:23:58;4.55;;;3.00;;
1400;SDS011;46518;48.842;8.926;2023-04-15T14:26:26;3.85;;;3.13;;
1400;SDS011;46518;48.842;8.926;2023-04-15T14:28:54;4.05;;;3.03;;
1400;SDS011;46518;48.842;8.926;2023-04-15T14:31:22;5.25;;;3.05;;
1400;SDS011;46518;48.842;8.926;2023-04-15T14:33:51;4.43;;;3.80;;
1400;SDS011;46518;48.842;8.926;2023-04-15T14:36:20;7.40;;;4.45;;
1400;SDS011;46518;48.842;8.926;2023-04-15T14:38:48;4.20;;;3.63;;
1400;SDS011;46518;48.842;8.926;2023-04-15T14:41:17;5.50;;;3.75;;
1400;SDS011;46518;48.842;8.926;2023-04-15T14:43:45;5.25;;;3.33;;
1400;SDS011;46518;48.842;8.926;2023-04-15T14:46:13;3.25;;;2.90;;
1400;SDS011;46518;48.842;8.926;2023-04-15T14:48:42;4.90;;;3.55;;
1400;SDS011;46518;48.842;8.926;2023-04-15T14:51:10;5.47;;;4.45;;
1400;SDS011;46518;48.842;8.926;2023-04-15T14:53:39;4.53;;;3.05;;
1400;SDS011;46518;48.842;8.926;2023-04-15T14:56:07;3.45;;;2.58;;
1400;SDS011;46518;48.842;8.926;2023-04-15T14:58:36;6.45;;;4.00;;
1400;SDS011;46518;48.842;8.926;2023-04-15T15:01:04;4.00;;;3.40;;
1400;SDS011;46518;48.842;8.926;2023-04-15T15:03:32;4.40;;;3.08;;
1400;SDS011;46518;48.842;8.926;2023-04-15T15:06:01;3.30;;;3.10;;
1400;SDS011;46518;48.842;8.926;2023-04-15T15:08:29;6.38;;;4.00;;
1400;SDS011;46518;48.842;8.926;2023-04-15T15:10:58;3.33;;;2.97;;
1400;SDS011;46518;48.842;8.926;2023-04-15T15:13:27;4.35;;;3.38;;
1400;SDS011;46518;48.842;8.926;2023-04-15T15:15:55;3.30;;;3.00;;
1400;SDS011;46518;48.842;8.926;2023-04-15T15:18:23;2.65;;;2.30;;
1400;SDS011;46518;48.842;8.926;2023-04-15T15:20:52;3.25;;;2.50;;
1400;SDS011;46518;48.842;8.926;2023-04-15T15:23:20;4.40;;;3.05;;